Blackstone, Massachusetts
Current Conditions -  °F | °C
As of 12:55 PM on Saturday 20 Dec 2014 (Local Time) from KSFZ Reporting Station
Overcast Overcast  
Wind Chill: 26°   Ceiling: 2900
Heat Index: 34°   Visibility: 10mi
Dew Point: 19°   Wind: 9mph
Humidity: 56%   Direction: 20°NNE
Pressure: 30.23"   Gusts: NA
Location:  42.02°N, 71.54°W
Report Text: KSFZ 201755Z 02008KT 10SM OVC029 01/M07 A3023 RMK AO1 10010 21030 57007
Loading
Personal Weather Stations






























Interactive Weather Map New forecast layout! Learn more

10-Day Weather Forecast

Advertisements
Track Severe Weather on mobile